createdAt,value
2023-01-06T00:01:36.340Z,99843.38
2023-01-06T00:04:05.308Z,99863.44
2023-01-06T00:06:33.241Z,99858.84
2023-01-06T00:09:05.147Z,99856.81
2023-01-06T00:11:34.033Z,99858.63
2023-01-06T00:14:02.822Z,99851.28
2023-01-06T00:16:31.581Z,99856.53
2023-01-06T00:19:01.175Z,99866.06
2023-01-06T00:21:30.091Z,99866.19
2023-01-06T00:23:58.158Z,99869.03
2023-01-06T00:26:26.767Z,99873.56
2023-01-06T00:28:56.688Z,99876.91
2023-01-06T00:31:25.267Z,99872.06
2023-01-06T00:33:53.131Z,99877.41
2023-01-06T00:36:21.920Z,99869.69
2023-01-06T00:38:51.932Z,99885.72
2023-01-06T00:41:39.362Z,99901.03
2023-01-06T00:44:08.145Z,99914.63
2023-01-06T00:46:40.100Z,99912.16
2023-01-06T00:49:08.600Z,99928.13
2023-01-06T00:51:39.809Z,99936.00
2023-01-06T00:54:12.579Z,99930.94
2023-01-06T00:56:44.384Z,99953.38
2023-01-06T00:59:18.076Z,99958.22
2023-01-06T01:01:47.963Z,99962.88
2023-01-06T01:04:16.998Z,99961.56
2023-01-06T01:06:47.440Z,99972.78
2023-01-06T01:09:35.328Z,99972.06
2023-01-06T01:12:10.106Z,99963.19
2023-01-06T01:14:48.580Z,99958.91
2023-01-06T01:17:29.561Z,99965.72
2023-01-06T01:19:59.656Z,99960.69
2023-01-06T01:22:30.554Z,99970.59
2023-01-06T01:24:58.661Z,99967.06
2023-01-06T01:27:26.351Z,99971.44
2023-01-06T01:29:54.005Z,99962.66
2023-01-06T01:32:21.755Z,99970.59
2023-01-06T01:34:49.406Z,99972.44
2023-01-06T01:37:17.869Z,99973.97
2023-01-06T01:39:45.528Z,99969.84
2023-01-06T01:42:19.633Z,99971.88
2023-01-06T01:44:55.568Z,99972.72
2023-01-06T01:47:46.770Z,99974.53
2023-01-06T01:50:42.254Z,99980.53
2023-01-06T01:53:22.807Z,99975.41
2023-01-06T01:55:55.851Z,99976.25
2023-01-06T01:58:38.408Z,99971.66
2023-01-06T02:01:10.551Z,99965.09
2023-01-06T02:03:43.000Z,99964.19
2023-01-06T02:06:20.167Z,99967.56
2023-01-06T02:09:32.995Z,99963.09
2023-01-06T02:12:01.774Z,99971.06
2023-01-06T02:14:30.903Z,99979.72
2023-01-06T02:17:54.152Z,99975.97
2023-01-06T02:20:56.261Z,99978.94
2023-01-06T02:23:42.686Z,99988.81
2023-01-06T02:26:54.542Z,99984.28
2023-01-06T02:30:51.176Z,99998.56
2023-01-06T02:33:30.958Z,99994.28
2023-01-06T02:36:40.818Z,99996.28
2023-01-06T02:39:57.852Z,99996.81
2023-01-06T02:43:06.068Z,100019.91
2023-01-06T02:46:13.013Z,100022.59
2023-01-06T02:49:00.274Z,100032.41
2023-01-06T02:52:08.982Z,100031.03
2023-01-06T02:55:13.579Z,100033.91
2023-01-06T02:58:07.054Z,100037.25
2023-01-06T03:01:01.971Z,100046.66
2023-01-06T03:03:36.027Z,100038.72
2023-01-06T03:06:16.355Z,100044.94
2023-01-06T03:08:52.340Z,100033.13
2023-01-06T03:11:20.376Z,100027.97
2023-01-06T03:13:58.508Z,100034.66
2023-01-06T03:16:27.317Z,100027.75
2023-01-06T03:18:58.371Z,100033.91
2023-01-06T03:21:36.464Z,100031.22
2023-01-06T03:24:11.506Z,100028.41
2023-01-06T03:26:40.585Z,100030.19
2023-01-06T03:29:12.930Z,100026.19
2023-01-06T03:31:54.007Z,100026.56
2023-01-06T03:35:15.261Z,100019.38
2023-01-06T03:38:25.403Z,100023.84
2023-01-06T03:42:07.119Z,100021.31
2023-01-06T03:45:15.320Z,100025.84
2023-01-06T03:48:28.199Z,100038.56
2023-01-06T03:51:21.670Z,100040.31
2023-01-06T03:54:07.981Z,100041.47
2023-01-06T03:57:07.345Z,100053.53
2023-01-06T03:59:59.365Z,100058.72
2023-01-06T04:02:28.802Z,100069.47
2023-01-06T04:05:25.183Z,100069.13
2023-01-06T04:07:54.447Z,100068.53
2023-01-06T04:10:24.067Z,100071.28
2023-01-06T04:12:52.093Z,100072.50
2023-01-06T04:15:26.805Z,100071.81
2023-01-06T04:17:55.434Z,100073.72
2023-01-06T04:20:30.058Z,100081.78
2023-01-06T04:22:59.283Z,100080.59
2023-01-06T04:25:27.891Z,100078.03
2023-01-06T04:27:56.503Z,100080.44
2023-01-06T04:30:25.176Z,100080.81
2023-01-06T04:32:52.892Z,100081.56
2023-01-06T04:35:21.647Z,100079.81
2023-01-06T04:37:49.289Z,100084.91
2023-01-06T04:40:17.948Z,100087.44
2023-01-06T04:43:04.303Z,100093.84
2023-01-06T04:45:34.957Z,100098.00
2023-01-06T04:48:02.893Z,100096.88
2023-01-06T04:50:30.555Z,100101.78
2023-01-06T04:52:58.281Z,100102.91
2023-01-06T04:55:26.226Z,100110.19
2023-01-06T04:57:53.951Z,100107.09
2023-01-06T05:00:22.239Z,100111.34
2023-01-06T05:02:51.231Z,100115.91
2023-01-06T05:05:19.751Z,100118.44
2023-01-06T05:07:48.357Z,100120.59
2023-01-06T05:10:16.171Z,100123.50
2023-01-06T05:12:44.768Z,100124.34
2023-01-06T05:15:12.878Z,100124.69
2023-01-06T05:17:40.630Z,100129.63
2023-01-06T05:20:10.238Z,100125.09
2023-01-06T05:22:37.873Z,100124.41
2023-01-06T05:25:06.349Z,100121.28
2023-01-06T05:27:34.881Z,100121.16
2023-01-06T05:30:02.745Z,100129.31
2023-01-06T05:32:30.401Z,100131.38
2023-01-06T05:34:58.044Z,100141.88
2023-01-06T05:37:25.638Z,100164.38
2023-01-06T05:39:53.280Z,100170.75
2023-01-06T05:42:21.809Z,100181.25
2023-01-06T05:44:49.428Z,100185.34
2023-01-06T05:47:17.098Z,100183.63
2023-01-06T05:49:46.264Z,100190.78
2023-01-06T05:52:14.481Z,100190.09
2023-01-06T05:54:42.181Z,100191.03
2023-01-06T05:57:11.156Z,100181.97
2023-01-06T05:59:38.784Z,100183.84
2023-01-06T06:02:06.484Z,100175.56
2023-01-06T06:04:34.990Z,100176.44
2023-01-06T06:07:02.692Z,100171.97
2023-01-06T06:09:30.852Z,100173.75
2023-01-06T06:11:58.511Z,100182.09
2023-01-06T06:14:28.030Z,100179.84
2023-01-06T06:16:57.576Z,100183.25
2023-01-06T06:19:27.167Z,100192.47
2023-01-06T06:21:54.906Z,100196.84
2023-01-06T06:24:22.737Z,100205.78
2023-01-06T06:26:51.240Z,100200.47
2023-01-06T06:29:20.678Z,100205.50
2023-01-06T06:31:48.354Z,100200.19
2023-01-06T06:34:18.817Z,100202.03
2023-01-06T06:36:47.348Z,100203.00
2023-01-06T06:39:15.855Z,100207.72
2023-01-06T06:41:44.331Z,100213.81
2023-01-06T06:44:12.054Z,100199.47
2023-01-06T06:46:39.801Z,100201.34
2023-01-06T06:49:07.589Z,100201.03
2023-01-06T06:51:36.945Z,100211.69
2023-01-06T06:54:05.743Z,100208.16
2023-01-06T06:56:33.482Z,100201.66
2023-01-06T06:59:03.100Z,100214.59
2023-01-06T07:01:31.999Z,100219.06
2023-01-06T07:04:02.412Z,100217.25
2023-01-06T07:06:31.503Z,100217.97
2023-01-06T07:08:59.229Z,100215.66
2023-01-06T07:11:27.015Z,100218.91
2023-01-06T07:13:54.655Z,100227.84
2023-01-06T07:16:25.445Z,100226.91
2023-01-06T07:18:53.838Z,100231.88
2023-01-06T07:21:21.516Z,100240.00
2023-01-06T07:23:49.335Z,100236.84
2023-01-06T07:26:17.069Z,100236.31
2023-01-06T07:28:45.293Z,100242.75
2023-01-06T07:31:13.033Z,100242.66
2023-01-06T07:33:40.781Z,100252.50
2023-01-06T07:36:09.324Z,100256.38
2023-01-06T07:38:36.993Z,100264.94
2023-01-06T07:41:05.044Z,100263.97
2023-01-06T07:43:33.489Z,100263.97
2023-01-06T07:46:01.170Z,100258.22
2023-01-06T07:48:28.916Z,100260.69
2023-01-06T07:50:59.200Z,100259.34
2023-01-06T07:53:27.889Z,100252.09
2023-01-06T07:55:56.770Z,100253.59
2023-01-06T07:58:24.602Z,100258.06
2023-01-06T08:00:52.405Z,100252.13
2023-01-06T08:03:20.210Z,100252.47
2023-01-06T08:05:47.934Z,100264.09
2023-01-06T08:08:15.601Z,100260.06
2023-01-06T08:10:44.294Z,100267.00
2023-01-06T08:13:12.370Z,100274.22
2023-01-06T08:15:41.210Z,100270.06
2023-01-06T08:18:09.389Z,100276.88
2023-01-06T08:20:37.134Z,100273.94
2023-01-06T08:23:04.777Z,100270.53
2023-01-06T08:25:33.301Z,100273.44
2023-01-06T08:28:02.168Z,100278.31
2023-01-06T08:30:30.085Z,100274.13
2023-01-06T08:32:59.835Z,100283.31
2023-01-06T08:35:28.157Z,100277.31
2023-01-06T08:37:56.753Z,100281.56
2023-01-06T08:40:25.156Z,100281.34
2023-01-06T08:42:53.631Z,100284.03
2023-01-06T08:45:21.296Z,100287.06
2023-01-06T08:47:48.928Z,100289.78
2023-01-06T08:50:16.680Z,100290.25
2023-01-06T08:52:44.343Z,100280.28
2023-01-06T08:55:12.014Z,100277.78
2023-01-06T08:57:39.668Z,100285.63
2023-01-06T09:00:09.794Z,100281.56
2023-01-06T09:02:37.426Z,100276.84
2023-01-06T09:05:07.077Z,100275.22
2023-01-06T09:07:34.916Z,100276.25
2023-01-06T09:10:02.614Z,100277.97
2023-01-06T09:12:30.231Z,100272.09
2023-01-06T09:14:57.884Z,100277.19
2023-01-06T09:17:26.315Z,100271.06
2023-01-06T09:19:53.978Z,100279.13
2023-01-06T09:22:21.607Z,100289.19
2023-01-06T09:24:49.331Z,100304.31
2023-01-06T09:27:17.015Z,100303.75
2023-01-06T09:29:44.702Z,100300.88
2023-01-06T09:32:12.441Z,100305.16
2023-01-06T09:34:40.168Z,100320.50
2023-01-06T09:37:07.894Z,100308.25
2023-01-06T09:39:37.322Z,100312.16
2023-01-06T09:42:45.104Z,100298.53
2023-01-06T09:45:19.879Z,100308.38
2023-01-06T09:47:56.516Z,100296.84
2023-01-06T09:50:50.241Z,100298.38
2023-01-06T09:53:26.510Z,100294.13
2023-01-06T09:56:07.862Z,100299.41
2023-01-06T09:59:00.781Z,100304.06
2023-01-06T10:01:41.215Z,100306.09
2023-01-06T10:04:35.743Z,100303.19
2023-01-06T10:07:28.547Z,100306.13
2023-01-06T10:10:22.401Z,100303.91
2023-01-06T10:13:38.307Z,100300.06
2023-01-06T10:17:04.569Z,100295.28
2023-01-06T10:20:18.749Z,100300.69
2023-01-06T10:23:19.750Z,100299.78
2023-01-06T10:26:14.632Z,100305.47
2023-01-06T10:28:53.397Z,100304.47
2023-01-06T10:31:35.410Z,100305.09
2023-01-06T10:34:05.684Z,100309.34
2023-01-06T10:36:45.591Z,100314.47
2023-01-06T10:39:22.974Z,100304.47
2023-01-06T10:42:41.441Z,100289.53
2023-01-06T10:45:13.720Z,100293.53
2023-01-06T10:47:44.422Z,100294.91
2023-01-06T10:50:18.658Z,100294.56
2023-01-06T10:52:48.880Z,100294.84
2023-01-06T10:55:58.094Z,100296.50
2023-01-06T10:59:11.888Z,100291.69
2023-01-06T11:01:54.022Z,100294.63
2023-01-06T11:04:25.896Z,100288.22
2023-01-06T11:07:00.103Z,100292.00
2023-01-06T11:09:43.711Z,100287.09
2023-01-06T11:12:28.282Z,100288.09
2023-01-06T11:15:05.621Z,100287.75
2023-01-06T11:17:33.980Z,100290.28
2023-01-06T11:20:33.372Z,100291.31
2023-01-06T11:23:23.280Z,100285.81
2023-01-06T11:26:12.797Z,100281.84
2023-01-06T11:28:43.838Z,100284.97
2023-01-06T11:31:19.486Z,100282.47
2023-01-06T11:34:19.841Z,100282.47
2023-01-06T11:36:52.003Z,100281.19
2023-01-06T11:39:36.227Z,100285.06
2023-01-06T11:42:15.134Z,100281.06
2023-01-06T11:44:44.389Z,100287.19
2023-01-06T11:47:27.172Z,100279.38
2023-01-06T11:50:01.130Z,100279.94
2023-01-06T11:52:33.399Z,100275.63
2023-01-06T11:55:22.721Z,100275.72
2023-01-06T11:58:13.062Z,100265.75
2023-01-06T12:01:28.326Z,100268.78
2023-01-06T12:04:21.554Z,100266.84
2023-01-06T12:07:30.604Z,100273.44
2023-01-06T12:10:15.499Z,100261.03
2023-01-06T12:12:45.453Z,100265.69
2023-01-06T12:15:16.455Z,100273.25
2023-01-06T12:17:58.167Z,100263.38
2023-01-06T12:20:39.150Z,100275.97
2023-01-06T12:23:21.787Z,100270.84
2023-01-06T12:26:00.662Z,100274.97
2023-01-06T12:28:38.863Z,100279.59
2023-01-06T12:31:21.266Z,100268.06
2023-01-06T12:34:38.061Z,100266.59
2023-01-06T12:37:44.840Z,100258.25
2023-01-06T12:40:52.290Z,100259.84
2023-01-06T12:43:26.078Z,100247.88
2023-01-06T12:46:21.604Z,100260.09
2023-01-06T12:49:11.715Z,100252.25
2023-01-06T12:51:47.566Z,100254.19
2023-01-06T12:54:33.383Z,100247.72
2023-01-06T12:57:47.233Z,100250.50
2023-01-06T13:00:55.303Z,100247.59
2023-01-06T13:04:10.817Z,100253.38
2023-01-06T13:07:17.271Z,100247.59
2023-01-06T13:10:26.175Z,100244.56
2023-01-06T13:13:36.733Z,100245.59
2023-01-06T13:16:43.099Z,100238.16
2023-01-06T13:19:34.377Z,100240.31
2023-01-06T13:22:07.430Z,100239.75
2023-01-06T13:25:26.805Z,100242.53
2023-01-06T13:28:34.745Z,100244.25
2023-01-06T13:31:41.049Z,100241.75
2023-01-06T13:34:35.487Z,100235.75
2023-01-06T13:37:39.644Z,100247.63
2023-01-06T13:40:21.213Z,100243.41
2023-01-06T13:43:21.892Z,100243.28
2023-01-06T13:45:58.947Z,100244.09
2023-01-06T13:49:10.568Z,100253.81
2023-01-06T13:51:44.455Z,100246.63
2023-01-06T13:54:41.634Z,100254.03
2023-01-06T13:57:22.077Z,100262.38
2023-01-06T14:00:06.422Z,100254.03
2023-01-06T14:02:38.580Z,100254.19
2023-01-06T14:05:30.184Z,100262.06
2023-01-06T14:08:03.799Z,100256.69
2023-01-06T14:10:46.103Z,100261.06
2023-01-06T14:13:45.465Z,100253.19
2023-01-06T14:16:15.021Z,100263.59
2023-01-06T14:19:32.494Z,100267.50
2023-01-06T14:22:19.467Z,100263.69
2023-01-06T14:24:58.183Z,100273.06
2023-01-06T14:27:48.550Z,100266.09
2023-01-06T14:30:32.169Z,100265.69
2023-01-06T14:33:38.958Z,100263.06
2023-01-06T14:36:16.945Z,100256.25
2023-01-06T14:38:52.520Z,100257.69
2023-01-06T14:41:33.435Z,100256.69
2023-01-06T14:44:30.408Z,100252.19
2023-01-06T14:47:08.466Z,100244.28
2023-01-06T14:50:09.211Z,100244.72
2023-01-06T14:53:07.646Z,100236.59
2023-01-06T14:55:43.836Z,100237.03
2023-01-06T14:58:38.356Z,100242.53
2023-01-06T15:01:25.179Z,100235.38
2023-01-06T15:03:59.264Z,100239.59
2023-01-06T15:06:30.879Z,100233.28
2023-01-06T15:09:33.322Z,100236.63
2023-01-06T15:12:02.851Z,100232.13
2023-01-06T15:14:35.416Z,100233.25
2023-01-06T15:17:07.510Z,100232.59
2023-01-06T15:19:37.411Z,100230.38
2023-01-06T15:22:09.331Z,100229.28
2023-01-06T15:24:43.812Z,100230.16
2023-01-06T15:27:17.721Z,100228.88
2023-01-06T15:29:56.838Z,100226.91
2023-01-06T15:32:27.895Z,100225.75
2023-01-06T15:34:59.582Z,100229.69
2023-01-06T15:37:34.881Z,100226.22
2023-01-06T15:40:10.520Z,100223.53
2023-01-06T15:42:41.588Z,100224.13
2023-01-06T15:45:32.484Z,100223.97
2023-01-06T15:48:21.291Z,100226.66
2023-01-06T15:50:52.238Z,100223.00
2023-01-06T15:53:28.356Z,100227.25
2023-01-06T15:55:56.629Z,100230.91
2023-01-06T15:58:39.285Z,100227.09
2023-01-06T16:01:16.320Z,100228.97
2023-01-06T16:03:49.995Z,100234.53
2023-01-06T16:06:38.760Z,100230.84
2023-01-06T16:09:33.094Z,100228.88
2023-01-06T16:12:18.098Z,100236.78
2023-01-06T16:14:49.575Z,100231.78
2023-01-06T16:17:32.596Z,100234.88
2023-01-06T16:20:22.076Z,100231.41
2023-01-06T16:22:56.938Z,100235.38
2023-01-06T16:25:33.982Z,100234.47
2023-01-06T16:28:05.718Z,100249.19
2023-01-06T16:30:36.799Z,100253.59
2023-01-06T16:33:06.843Z,100258.13
2023-01-06T16:35:35.568Z,100261.16
2023-01-06T16:38:08.503Z,100259.19
2023-01-06T16:40:38.086Z,100259.94
2023-01-06T16:43:09.064Z,100268.25
2023-01-06T16:45:43.220Z,100274.47
2023-01-06T16:48:17.145Z,100264.66
2023-01-06T16:50:54.747Z,100264.06
2023-01-06T16:53:26.035Z,100270.91
2023-01-06T16:55:57.694Z,100266.94
2023-01-06T16:58:31.456Z,100273.34
2023-01-06T17:01:17.456Z,100275.38
2023-01-06T17:03:59.047Z,100270.69
2023-01-06T17:06:28.627Z,100266.56
2023-01-06T17:09:03.089Z,100270.63
2023-01-06T17:11:38.305Z,100267.69
2023-01-06T17:14:23.268Z,100263.44
2023-01-06T17:16:52.791Z,100258.13
2023-01-06T17:19:28.458Z,100261.09
2023-01-06T17:22:28.643Z,100256.31
2023-01-06T17:25:02.268Z,100256.50
2023-01-06T17:27:32.017Z,100250.56
2023-01-06T17:30:02.426Z,100252.75
2023-01-06T17:32:39.236Z,100262.09
2023-01-06T17:35:30.159Z,100254.44
2023-01-06T17:38:15.397Z,100251.81
2023-01-06T17:40:45.173Z,100252.25
2023-01-06T17:43:37.139Z,100253.53
2023-01-06T17:46:30.963Z,100264.78
2023-01-06T17:49:28.986Z,100255.69
2023-01-06T17:52:10.656Z,100258.72
2023-01-06T17:54:58.918Z,100259.59
2023-01-06T17:57:28.513Z,100261.28
2023-01-06T17:59:57.354Z,100262.28
2023-01-06T18:02:47.253Z,100262.41
2023-01-06T18:05:35.736Z,100254.59
2023-01-06T18:08:06.512Z,100254.53
2023-01-06T18:10:57.749Z,100259.44
2023-01-06T18:13:35.856Z,100257.84
2023-01-06T18:16:35.605Z,100259.69
2023-01-06T18:19:34.085Z,100268.09
2023-01-06T18:22:19.049Z,100272.53
2023-01-06T18:25:00.994Z,100271.75
2023-01-06T18:27:35.536Z,100264.09
2023-01-06T18:30:28.063Z,100273.63
2023-01-06T18:32:57.659Z,100280.72
2023-01-06T18:35:29.068Z,100274.91
2023-01-06T18:38:03.850Z,100268.78
2023-01-06T18:40:34.142Z,100269.63
2023-01-06T18:43:31.676Z,100279.63
2023-01-06T18:46:03.266Z,100278.38
2023-01-06T18:48:35.063Z,100275.50
2023-01-06T18:51:20.051Z,100271.72
2023-01-06T18:53:51.875Z,100260.41
2023-01-06T18:56:28.032Z,100273.53
2023-01-06T18:58:59.968Z,100277.50
2023-01-06T19:01:49.538Z,100268.91
2023-01-06T19:04:30.378Z,100279.31
2023-01-06T19:07:12.017Z,100280.44
2023-01-06T19:09:48.216Z,100282.16
2023-01-06T19:12:32.552Z,100276.03
2023-01-06T19:15:21.726Z,100274.19
2023-01-06T19:17:53.969Z,100292.59
2023-01-06T19:20:29.068Z,100286.22
2023-01-06T19:22:58.809Z,100269.97
2023-01-06T19:25:40.686Z,100272.03
2023-01-06T19:28:45.458Z,100266.59
2023-01-06T19:31:23.333Z,100260.25
2023-01-06T19:34:03.101Z,100255.06
2023-01-06T19:36:47.135Z,100262.44
2023-01-06T19:39:32.485Z,100264.69
2023-01-06T19:42:30.219Z,100257.16
2023-01-06T19:45:09.387Z,100261.25
2023-01-06T19:47:42.231Z,100264.16
2023-01-06T19:50:22.600Z,100258.94
2023-01-06T19:53:02.663Z,100253.16
2023-01-06T19:55:36.243Z,100248.94
2023-01-06T19:58:25.440Z,100229.00
2023-01-06T20:00:55.843Z,100234.09
2023-01-06T20:03:37.965Z,100228.63
2023-01-06T20:06:07.541Z,100223.97
2023-01-06T20:08:37.149Z,100216.88
2023-01-06T20:11:06.929Z,100223.25
2023-01-06T20:13:36.908Z,100216.28
2023-01-06T20:16:07.277Z,100217.53
2023-01-06T20:18:36.141Z,100221.84
2023-01-06T20:21:06.181Z,100217.94
2023-01-06T20:23:34.794Z,100219.16
2023-01-06T20:26:05.746Z,100215.06
2023-01-06T20:28:34.331Z,100229.44
2023-01-06T20:31:03.006Z,100228.38
2023-01-06T20:33:30.685Z,100225.69
2023-01-06T20:35:58.411Z,100231.19
2023-01-06T20:38:26.272Z,100238.72
2023-01-06T20:40:54.893Z,100223.00
2023-01-06T20:43:23.629Z,100214.94
2023-01-06T20:45:52.451Z,100219.16
2023-01-06T20:48:21.084Z,100231.13
2023-01-06T20:50:50.705Z,100223.59
2023-01-06T20:53:20.192Z,100228.06
2023-01-06T20:55:49.959Z,100236.31
2023-01-06T20:58:19.578Z,100239.03
2023-01-06T21:00:50.135Z,100239.91
2023-01-06T21:03:18.266Z,100226.78
2023-01-06T21:05:47.860Z,100241.03
2023-01-06T21:08:17.366Z,100234.50
2023-01-06T21:10:46.961Z,100240.38
2023-01-06T21:13:16.760Z,100247.06
2023-01-06T21:15:49.544Z,100238.44
2023-01-06T21:18:18.255Z,100249.00
2023-01-06T21:20:49.440Z,100255.91
2023-01-06T21:23:21.054Z,100248.84
2023-01-06T21:25:50.611Z,100248.94
2023-01-06T21:28:20.076Z,100248.03
2023-01-06T21:30:49.684Z,100247.78
2023-01-06T21:33:21.455Z,100243.53
2023-01-06T21:35:50.711Z,100242.38
2023-01-06T21:38:20.137Z,100241.06
2023-01-06T21:40:49.621Z,100241.06
2023-01-06T21:43:19.438Z,100227.72
2023-01-06T21:45:48.276Z,100240.59
2023-01-06T21:48:16.998Z,100236.47
2023-01-06T21:50:46.424Z,100238.31
2023-01-06T21:53:16.094Z,100249.00
2023-01-06T21:55:45.765Z,100249.16
2023-01-06T21:58:14.451Z,100244.19
2023-01-06T22:00:43.079Z,100237.34
2023-01-06T22:03:13.353Z,100237.34
2023-01-06T22:05:43.593Z,100231.50
2023-01-06T22:08:13.762Z,100233.38
2023-01-06T22:10:44.095Z,100231.00
2023-01-06T22:13:18.998Z,100239.97
2023-01-06T22:15:47.900Z,100238.59
2023-01-06T22:18:18.152Z,100249.03
2023-01-06T22:20:47.725Z,100253.63
2023-01-06T22:23:21.386Z,100251.03
2023-01-06T22:25:51.538Z,100250.59
2023-01-06T22:28:21.104Z,100239.41
2023-01-06T22:30:51.681Z,100238.84
2023-01-06T22:33:21.245Z,100237.63
2023-01-06T22:35:50.737Z,100232.06
2023-01-06T22:38:19.375Z,100229.75
2023-01-06T22:40:48.820Z,100231.44
2023-01-06T22:43:20.815Z,100228.66
2023-01-06T22:45:55.270Z,100230.66
2023-01-06T22:48:25.824Z,100224.69
2023-01-06T22:51:02.026Z,100229.28
2023-01-06T22:53:33.396Z,100218.50
2023-01-06T22:56:11.947Z,100215.84
2023-01-06T22:58:41.921Z,100203.06
2023-01-06T23:01:11.784Z,100205.53
2023-01-06T23:03:41.457Z,100205.97
2023-01-06T23:06:15.817Z,100207.69
2023-01-06T23:08:59.138Z,100217.25
2023-01-06T23:11:31.447Z,100224.19
2023-01-06T23:14:00.946Z,100221.06
2023-01-06T23:16:30.484Z,100211.34
2023-01-06T23:18:59.265Z,100208.44
2023-01-06T23:21:31.980Z,100208.72
2023-01-06T23:24:02.140Z,100205.97
2023-01-06T23:26:41.402Z,100210.44
2023-01-06T23:29:12.245Z,100203.28
2023-01-06T23:31:46.865Z,100203.28
2023-01-06T23:34:19.387Z,100209.81
2023-01-06T23:36:49.380Z,100198.63
2023-01-06T23:39:18.879Z,100207.63
2023-01-06T23:41:48.829Z,100211.22
2023-01-06T23:44:19.687Z,100203.03
2023-01-06T23:46:48.036Z,100196.53
2023-01-06T23:49:18.078Z,100208.13
2023-01-06T23:51:47.493Z,100198.06
2023-01-06T23:54:16.955Z,100204.66
2023-01-06T23:56:45.569Z,100203.84
2023-01-06T23:59:14.641Z,100202.22
